createdAt,value
2022-12-19T00:00:27.147Z,30.40
2022-12-19T00:01:31.166Z,31.13
2022-12-19T00:02:34.389Z,28.95
2022-12-19T00:03:36.724Z,29.38
2022-12-19T00:04:39.890Z,27.48
2022-12-19T00:05:42.457Z,29.88
2022-12-19T00:06:45.580Z,30.95
2022-12-19T00:07:48.694Z,29.50
2022-12-19T00:08:53.008Z,30.15
2022-12-19T00:09:56.499Z,31.15
2022-12-19T00:11:02.302Z,31.10
2022-12-19T00:12:04.802Z,28.75
2022-12-19T00:13:07.955Z,31.48
2022-12-19T00:14:11.474Z,29.77
2022-12-19T00:15:14.639Z,33.58
2022-12-19T00:16:19.045Z,30.02
2022-12-19T00:17:22.304Z,30.50
2022-12-19T00:18:24.376Z,29.17
2022-12-19T00:19:27.452Z,30.25
2022-12-19T00:20:29.531Z,30.80
2022-12-19T00:21:35.141Z,27.30
2022-12-19T00:22:37.442Z,31.02
2022-12-19T00:23:40.476Z,29.80
2022-12-19T00:24:42.488Z,28.85
2022-12-19T00:25:47.321Z,32.33
2022-12-19T00:26:50.891Z,28.90
2022-12-19T00:27:54.003Z,30.50
2022-12-19T00:28:58.310Z,29.48
2022-12-19T00:30:01.376Z,29.38
2022-12-19T00:31:04.432Z,31.02
2022-12-19T00:32:07.738Z,30.80
2022-12-19T00:33:10.859Z,33.80
2022-12-19T00:34:13.899Z,27.40
2022-12-19T00:35:16.442Z,28.80
2022-12-19T00:36:22.845Z,29.85
2022-12-19T00:37:25.251Z,31.90
2022-12-19T00:38:28.565Z,30.50
2022-12-19T00:39:30.553Z,31.00
2022-12-19T00:40:33.568Z,30.63
2022-12-19T00:41:41.564Z,33.08
2022-12-19T00:42:50.083Z,30.17
2022-12-19T00:43:56.860Z,31.08
2022-12-19T00:45:00.075Z,32.15
2022-12-19T00:46:03.422Z,31.38
2022-12-19T00:47:06.558Z,31.05
2022-12-19T00:48:08.620Z,30.02
2022-12-19T00:49:14.038Z,29.35
2022-12-19T00:50:16.201Z,30.27
2022-12-19T00:51:22.412Z,27.08
2022-12-19T00:52:24.449Z,28.42
2022-12-19T00:53:28.314Z,31.50
2022-12-19T00:54:32.150Z,29.15
2022-12-19T00:55:39.298Z,29.70
2022-12-19T00:56:42.817Z,32.17
2022-12-19T00:57:45.878Z,29.20
2022-12-19T00:58:48.536Z,30.33
2022-12-19T00:59:51.692Z,28.35
2022-12-19T01:00:53.832Z,30.65
2022-12-19T01:01:57.597Z,28.55
2022-12-19T01:02:59.945Z,29.90
2022-12-19T01:05:30.214Z,26.63
2022-12-19T01:06:33.597Z,29.02
2022-12-19T01:07:37.751Z,28.15
2022-12-19T01:08:40.132Z,29.92
2022-12-19T01:09:43.223Z,32.20
2022-12-19T01:10:45.804Z,28.17
2022-12-19T01:12:07.947Z,28.77
2022-12-19T01:13:10.940Z,29.75
2022-12-19T01:14:20.828Z,31.48
2022-12-19T01:15:25.913Z,27.30
2022-12-19T01:16:28.121Z,29.15
2022-12-19T01:17:31.188Z,26.95
2022-12-19T01:18:33.981Z,29.60
2022-12-19T01:19:43.430Z,28.33
2022-12-19T01:20:47.954Z,29.67
2022-12-19T01:21:50.071Z,31.10
2022-12-19T01:22:53.239Z,28.70
2022-12-19T01:23:55.246Z,29.55
2022-12-19T01:24:59.054Z,28.15
2022-12-19T01:26:01.054Z,27.85
2022-12-19T01:27:05.485Z,26.58
2022-12-19T01:28:08.093Z,28.60
2022-12-19T01:29:11.858Z,27.23
2022-12-19T01:30:14.120Z,29.63
2022-12-19T01:31:18.528Z,29.38
2022-12-19T01:32:22.282Z,27.42
2022-12-19T01:33:25.499Z,28.52
2022-12-19T01:34:29.032Z,32.97
2022-12-19T01:35:33.919Z,28.75
2022-12-19T01:36:38.052Z,31.55
2022-12-19T01:37:43.272Z,28.63
2022-12-19T01:38:45.360Z,27.77
2022-12-19T01:39:48.435Z,29.15
2022-12-19T01:40:52.167Z,28.25
2022-12-19T01:41:56.130Z,26.58
2022-12-19T01:43:01.097Z,30.02
2022-12-19T01:44:06.179Z,29.60
2022-12-19T01:45:30.234Z,24.50
2022-12-19T01:46:39.419Z,27.95
2022-12-19T01:47:47.504Z,31.30
2022-12-19T01:48:53.954Z,31.08
2022-12-19T01:49:56.944Z,27.23
2022-12-19T01:51:02.857Z,29.83
2022-12-19T01:52:07.873Z,28.00
2022-12-19T01:53:14.987Z,28.65
2022-12-19T01:54:22.352Z,28.83
2022-12-19T01:55:24.832Z,26.80
2022-12-19T01:56:32.935Z,30.20
2022-12-19T01:57:35.320Z,29.77
2022-12-19T01:58:46.529Z,28.27
2022-12-19T01:59:52.549Z,30.92
2022-12-19T02:00:55.996Z,29.20
2022-12-19T02:02:03.544Z,29.60
2022-12-19T02:03:12.801Z,29.25
2022-12-19T02:04:20.560Z,29.75
2022-12-19T02:05:23.721Z,29.42
2022-12-19T02:06:27.121Z,26.80
2022-12-19T02:07:30.583Z,29.20
2022-12-19T02:08:34.766Z,28.50
2022-12-19T02:09:38.518Z,29.77
2022-12-19T02:10:40.853Z,28.95
2022-12-19T02:11:44.041Z,30.88
2022-12-19T02:12:46.360Z,27.33
2022-12-19T02:13:51.332Z,26.92
2022-12-19T02:14:57.316Z,28.25
2022-12-19T02:16:17.541Z,28.40
2022-12-19T02:17:32.044Z,28.90
2022-12-19T02:18:42.974Z,24.30
2022-12-19T02:20:16.888Z,27.05
2022-12-19T02:21:35.018Z,26.50
2022-12-19T02:22:54.313Z,31.35
2022-12-19T02:24:33.069Z,25.30
2022-12-19T02:25:51.256Z,24.90
2022-12-19T02:27:16.986Z,25.98
2022-12-19T02:28:41.827Z,23.63
2022-12-19T02:30:00.593Z,26.35
2022-12-19T02:31:16.556Z,27.38
2022-12-19T02:32:28.539Z,26.33
2022-12-19T02:33:37.537Z,21.85
2022-12-19T02:34:46.429Z,26.52
2022-12-19T02:35:53.375Z,27.40
2022-12-19T02:37:02.237Z,27.55
2022-12-19T02:38:13.709Z,25.50
2022-12-19T02:39:24.401Z,26.08
2022-12-19T02:40:31.140Z,30.48
2022-12-19T02:41:44.157Z,28.67
2022-12-19T02:42:58.307Z,24.60
2022-12-19T02:44:02.219Z,29.08
2022-12-19T02:45:08.393Z,27.50
2022-12-19T02:46:14.933Z,28.50
2022-12-19T02:47:20.604Z,25.63
2022-12-19T02:48:24.418Z,26.92
2022-12-19T02:49:30.545Z,30.23
2022-12-19T02:50:40.595Z,28.77
2022-12-19T02:51:42.657Z,29.88
2022-12-19T02:52:47.680Z,26.15
2022-12-19T02:53:50.882Z,24.80
2022-12-19T02:54:58.474Z,29.13
2022-12-19T02:56:16.480Z,28.33
2022-12-19T02:57:29.284Z,27.80
2022-12-19T02:58:46.657Z,27.10
2022-12-19T03:00:03.352Z,30.15
2022-12-19T03:01:17.892Z,27.90
2022-12-19T03:02:32.911Z,28.85
2022-12-19T03:03:46.476Z,29.02
2022-12-19T03:04:59.582Z,27.75
2022-12-19T03:06:08.799Z,29.13
2022-12-19T03:07:16.515Z,28.08
2022-12-19T03:08:25.510Z,29.80
2022-12-19T03:09:35.497Z,26.23
2022-12-19T03:10:41.429Z,30.20
2022-12-19T03:11:47.603Z,28.25
2022-12-19T03:12:56.783Z,29.52
2022-12-19T03:14:03.450Z,26.40
2022-12-19T03:15:07.318Z,28.83
2022-12-19T03:16:12.682Z,32.20
2022-12-19T03:17:16.251Z,28.27
2022-12-19T03:18:21.133Z,30.58
2022-12-19T03:19:24.373Z,27.45
2022-12-19T03:20:37.164Z,28.80
2022-12-19T03:21:42.857Z,27.42
2022-12-19T03:22:45.955Z,31.52
2022-12-19T03:23:49.735Z,30.75
2022-12-19T03:24:53.199Z,28.45
2022-12-19T03:25:58.374Z,29.65
2022-12-19T03:27:04.430Z,30.30
2022-12-19T03:28:11.921Z,26.42
2022-12-19T03:29:20.024Z,26.17
2022-12-19T03:30:22.366Z,23.75
2022-12-19T03:31:29.103Z,26.52
2022-12-19T03:32:34.733Z,29.65
2022-12-19T03:33:40.428Z,26.30
2022-12-19T03:34:47.183Z,28.77
2022-12-19T03:35:52.235Z,29.60
2022-12-19T03:36:57.120Z,30.10
2022-12-19T03:38:03.336Z,31.30
2022-12-19T03:39:08.397Z,26.63
2022-12-19T03:40:15.457Z,28.67
2022-12-19T03:41:41.183Z,29.55
2022-12-19T03:43:04.428Z,30.20
2022-12-19T03:44:09.926Z,27.63
2022-12-19T03:45:16.523Z,30.60
2022-12-19T03:46:24.742Z,26.10
2022-12-19T03:47:33.296Z,27.73
2022-12-19T03:48:43.163Z,29.23
2022-12-19T03:49:46.275Z,27.00
2022-12-19T03:50:55.389Z,27.40
2022-12-19T03:52:03.148Z,31.00
2022-12-19T03:53:17.324Z,27.95
2022-12-19T03:54:26.051Z,32.08
2022-12-19T03:55:38.431Z,27.42
2022-12-19T03:56:45.953Z,27.38
2022-12-19T03:57:54.710Z,25.52
2022-12-19T03:59:01.748Z,30.02
2022-12-19T04:00:08.739Z,28.77
2022-12-19T04:01:16.944Z,27.77
2022-12-19T04:02:22.702Z,26.30
2022-12-19T04:03:25.879Z,27.17
2022-12-19T04:04:31.479Z,29.02
2022-12-19T04:05:35.370Z,30.15
2022-12-19T04:06:39.729Z,29.45
2022-12-19T04:07:42.608Z,28.50
2022-12-19T04:08:46.838Z,28.65
2022-12-19T04:09:50.863Z,28.88
2022-12-19T04:10:58.726Z,27.67
2022-12-19T04:12:05.542Z,30.98
2022-12-19T04:13:12.381Z,32.30
2022-12-19T04:14:19.891Z,25.25
2022-12-19T04:15:35.011Z,28.30
2022-12-19T04:16:43.031Z,31.05
2022-12-19T04:17:50.695Z,27.60
2022-12-19T04:18:59.327Z,29.20
2022-12-19T04:20:08.141Z,26.67
2022-12-19T04:21:16.361Z,27.67
2022-12-19T04:22:26.627Z,25.85
2022-12-19T04:23:33.557Z,25.95
2022-12-19T04:24:41.415Z,32.00
2022-12-19T04:25:48.009Z,27.70
2022-12-19T04:26:55.547Z,28.67
2022-12-19T04:28:03.434Z,30.02
2022-12-19T04:29:09.031Z,29.95
2022-12-19T04:30:14.899Z,26.13
2022-12-19T04:31:19.597Z,30.33
2022-12-19T04:32:22.773Z,28.63
2022-12-19T04:33:25.872Z,29.17
2022-12-19T04:34:28.158Z,30.20
2022-12-19T04:35:32.639Z,29.67
2022-12-19T04:36:35.914Z,26.73
2022-12-19T04:37:38.380Z,28.90
2022-12-19T04:38:41.656Z,29.88
2022-12-19T04:39:43.712Z,29.30
2022-12-19T04:40:46.764Z,27.25
2022-12-19T04:41:48.853Z,28.70
2022-12-19T04:42:51.905Z,26.20
2022-12-19T04:43:53.951Z,26.98
2022-12-19T04:44:56.971Z,30.08
2022-12-19T04:45:59.098Z,27.00
2022-12-19T04:47:02.197Z,26.20
2022-12-19T04:48:04.576Z,28.88
2022-12-19T04:49:08.004Z,26.90
2022-12-19T04:50:11.000Z,30.73
2022-12-19T04:51:17.289Z,33.03
2022-12-19T04:52:19.322Z,27.70
2022-12-19T04:53:22.385Z,29.15
2022-12-19T04:54:24.520Z,30.35
2022-12-19T04:55:27.624Z,29.33
2022-12-19T04:56:29.679Z,30.98
2022-12-19T04:57:33.167Z,30.02
2022-12-19T04:58:35.276Z,28.42
2022-12-19T04:59:38.452Z,29.70
2022-12-19T05:00:40.521Z,27.02
2022-12-19T05:01:43.623Z,26.15
2022-12-19T05:02:45.928Z,27.48
2022-12-19T05:03:54.614Z,28.73
2022-12-19T05:04:57.867Z,19.73
2022-12-19T05:06:08.676Z,27.25
2022-12-19T05:07:13.501Z,26.40
2022-12-19T05:08:16.556Z,26.88
2022-12-19T05:09:18.659Z,23.65
2022-12-19T05:10:21.688Z,26.30
2022-12-19T05:11:23.737Z,29.10
2022-12-19T05:12:26.798Z,26.30
2022-12-19T05:13:30.199Z,30.08
2022-12-19T05:14:33.419Z,25.02
2022-12-19T05:15:35.600Z,26.95
2022-12-19T05:16:38.812Z,26.10
2022-12-19T05:17:41.042Z,25.65
2022-12-19T05:18:44.184Z,30.08
2022-12-19T05:19:46.818Z,31.13
2022-12-19T05:20:49.909Z,32.85
2022-12-19T05:21:51.914Z,27.27
2022-12-19T05:22:56.286Z,29.00
2022-12-19T05:23:58.326Z,30.33
2022-12-19T05:25:01.382Z,29.90
2022-12-19T05:26:05.460Z,32.17
2022-12-19T05:27:08.501Z,28.75
2022-12-19T05:28:10.587Z,28.35
2022-12-19T05:29:15.371Z,27.63
2022-12-19T05:30:17.483Z,28.05
2022-12-19T05:31:22.250Z,29.08
2022-12-19T05:32:24.592Z,28.35
2022-12-19T05:33:29.008Z,30.27
2022-12-19T05:34:32.627Z,26.80
2022-12-19T05:35:34.718Z,30.08
2022-12-19T05:36:37.890Z,27.13
2022-12-19T05:37:39.935Z,27.65
2022-12-19T05:38:44.588Z,27.70
2022-12-19T05:39:46.641Z,26.42
2022-12-19T05:40:49.676Z,29.15
2022-12-19T05:41:52.748Z,30.20
2022-12-19T05:42:54.806Z,26.80
2022-12-19T05:43:57.847Z,28.33
2022-12-19T05:44:59.857Z,25.48
2022-12-19T05:46:03.141Z,28.40
2022-12-19T05:47:05.480Z,25.98
2022-12-19T05:48:09.471Z,29.80
2022-12-19T05:49:11.673Z,27.20
2022-12-19T05:50:14.770Z,30.23
2022-12-19T05:51:16.992Z,29.42
2022-12-19T05:52:20.042Z,26.13
2022-12-19T05:53:25.954Z,25.67
2022-12-19T05:54:30.682Z,26.00
2022-12-19T05:55:32.906Z,28.42
2022-12-19T05:56:36.000Z,25.30
2022-12-19T05:57:38.264Z,28.45
2022-12-19T05:58:42.887Z,30.25
2022-12-19T05:59:44.979Z,27.10
2022-12-19T06:00:48.084Z,29.70
2022-12-19T06:01:50.235Z,27.90
2022-12-19T06:02:53.406Z,27.52
2022-12-19T06:03:55.966Z,29.05
2022-12-19T06:04:59.026Z,27.73
2022-12-19T06:06:03.900Z,29.27
2022-12-19T06:07:06.969Z,27.00
2022-12-19T06:08:09.024Z,26.40
2022-12-19T06:09:12.036Z,26.08
2022-12-19T06:10:15.544Z,25.48
2022-12-19T06:11:18.665Z,28.73
2022-12-19T06:12:20.714Z,25.42
2022-12-19T06:13:25.191Z,26.67
2022-12-19T06:14:27.387Z,27.73
2022-12-19T06:15:30.496Z,26.77
2022-12-19T06:16:32.606Z,27.80
2022-12-19T06:17:35.659Z,26.30
2022-12-19T06:18:42.903Z,30.85
2022-12-19T06:19:47.905Z,30.15
2022-12-19T06:20:56.870Z,27.80
2022-12-19T06:22:00.142Z,29.00
2022-12-19T06:23:02.236Z,26.75
2022-12-19T06:24:06.081Z,24.98
2022-12-19T06:25:09.483Z,29.23
2022-12-19T06:26:19.425Z,29.52
2022-12-19T06:27:22.112Z,31.55
2022-12-19T06:28:26.018Z,28.95
2022-12-19T06:29:28.104Z,28.45
2022-12-19T06:30:31.213Z,27.45
2022-12-19T06:31:33.392Z,26.50
2022-12-19T06:32:38.351Z,29.50
2022-12-19T06:33:40.852Z,25.50
2022-12-19T06:36:09.213Z,31.08
2022-12-19T06:37:12.601Z,26.08
2022-12-19T06:38:15.740Z,28.63
2022-12-19T06:39:17.838Z,25.27
2022-12-19T06:40:34.845Z,30.63
2022-12-19T06:41:57.171Z,25.70
2022-12-19T06:43:25.191Z,26.90
2022-12-19T06:44:38.771Z,27.85
2022-12-19T06:45:40.871Z,24.02
2022-12-19T06:46:44.264Z,26.08
2022-12-19T06:47:46.342Z,26.50
2022-12-19T06:48:49.430Z,27.42
2022-12-19T06:49:52.665Z,28.58
2022-12-19T06:50:55.318Z,29.80
2022-12-19T06:51:58.412Z,31.25
2022-12-19T06:53:01.691Z,28.20
2022-12-19T06:54:04.543Z,27.85
2022-12-19T06:55:09.143Z,25.35
2022-12-19T06:56:13.389Z,27.02
2022-12-19T06:57:17.990Z,26.67
2022-12-19T06:58:24.205Z,28.60
2022-12-19T06:59:27.651Z,24.95
2022-12-19T07:00:29.920Z,28.42
2022-12-19T07:01:48.249Z,29.88
2022-12-19T07:02:52.849Z,29.13
2022-12-19T07:03:55.532Z,28.40
2022-12-19T07:05:02.216Z,25.88
2022-12-19T07:06:05.031Z,25.92
2022-12-19T07:07:08.791Z,23.60
2022-12-19T07:08:11.323Z,25.42
2022-12-19T07:09:14.368Z,25.98
2022-12-19T07:10:16.617Z,27.35
2022-12-19T07:11:20.028Z,32.03
2022-12-19T07:12:24.521Z,28.70
2022-12-19T07:13:27.495Z,29.20
2022-12-19T07:14:30.760Z,29.52
2022-12-19T07:15:34.789Z,27.83
2022-12-19T07:16:38.169Z,31.40
2022-12-19T07:17:41.581Z,30.27
2022-12-19T07:18:43.900Z,30.63
2022-12-19T07:19:47.027Z,28.73
2022-12-19T07:20:50.153Z,25.40
2022-12-19T07:21:53.289Z,25.45
2022-12-19T07:22:55.488Z,26.92
2022-12-19T07:23:58.585Z,26.70
2022-12-19T07:25:04.399Z,27.77
2022-12-19T07:26:08.412Z,28.13
2022-12-19T07:27:10.620Z,26.60
2022-12-19T07:28:16.169Z,28.15
2022-12-19T07:29:18.327Z,28.60
2022-12-19T07:30:22.206Z,28.83
2022-12-19T07:31:24.389Z,26.23
2022-12-19T07:32:27.546Z,28.00
2022-12-19T07:33:30.671Z,24.80
2022-12-19T07:34:32.878Z,27.38
2022-12-19T07:35:35.952Z,26.83
2022-12-19T07:36:39.071Z,29.23
2022-12-19T07:37:42.167Z,27.85
2022-12-19T07:38:45.508Z,29.25
2022-12-19T07:39:48.821Z,25.55
2022-12-19T07:40:50.955Z,29.45
2022-12-19T07:41:54.056Z,27.85
2022-12-19T07:43:08.852Z,26.95
2022-12-19T07:44:15.950Z,27.88
2022-12-19T07:45:18.023Z,23.88
2022-12-19T07:46:22.309Z,28.75
2022-12-19T07:47:27.585Z,28.08
2022-12-19T07:48:31.184Z,26.88
2022-12-19T07:49:34.211Z,26.38
2022-12-19T07:50:37.686Z,25.63
2022-12-19T07:51:39.740Z,29.77
2022-12-19T07:52:45.896Z,28.52
2022-12-19T07:53:48.760Z,27.08
2022-12-19T07:54:51.974Z,27.73
2022-12-19T07:55:54.060Z,27.10
2022-12-19T07:56:57.420Z,25.23
2022-12-19T07:57:59.618Z,30.48
2022-12-19T07:59:02.743Z,26.77
2022-12-19T08:00:07.636Z,28.77
2022-12-19T08:01:15.971Z,28.92
2022-12-19T08:02:18.232Z,30.50
2022-12-19T08:03:22.005Z,28.92
2022-12-19T08:04:25.291Z,27.67
2022-12-19T08:05:28.462Z,27.35
2022-12-19T08:06:30.677Z,29.67
2022-12-19T08:07:33.916Z,31.00
2022-12-19T08:08:37.755Z,29.85
2022-12-19T08:09:41.121Z,31.52
2022-12-19T08:10:43.247Z,25.70
2022-12-19T08:11:46.499Z,31.05
2022-12-19T08:12:50.120Z,27.23
2022-12-19T08:13:52.474Z,30.58
2022-12-19T08:14:57.437Z,30.33
2022-12-19T08:16:02.531Z,29.42
2022-12-19T08:17:21.599Z,29.48
2022-12-19T08:18:25.974Z,28.35
2022-12-19T08:19:28.111Z,30.52
2022-12-19T08:20:31.240Z,25.88
2022-12-19T08:21:34.634Z,29.25
2022-12-19T08:22:38.140Z,29.05
2022-12-19T08:23:41.672Z,32.78
2022-12-19T08:24:43.820Z,27.70
2022-12-19T08:25:46.844Z,28.77
2022-12-19T08:26:50.015Z,30.27
2022-12-19T08:27:53.021Z,27.42
2022-12-19T08:28:58.413Z,33.78
2022-12-19T08:30:00.484Z,34.70
2022-12-19T08:31:09.261Z,30.38
2022-12-19T08:32:40.689Z,28.92
2022-12-19T08:33:44.085Z,32.35
2022-12-19T08:34:46.279Z,30.67
2022-12-19T08:35:51.131Z,29.33
2022-12-19T08:36:54.233Z,30.90
2022-12-19T08:37:57.289Z,29.33
2022-12-19T08:39:00.385Z,30.23
2022-12-19T08:40:03.505Z,30.85
2022-12-19T08:41:07.637Z,32.10
2022-12-19T08:42:09.689Z,31.15
2022-12-19T08:43:12.861Z,32.28
2022-12-19T08:44:16.502Z,35.58
2022-12-19T08:45:19.729Z,33.92
2022-12-19T08:46:24.850Z,34.55
2022-12-19T08:47:26.953Z,30.17
2022-12-19T08:48:30.240Z,32.75
2022-12-19T08:49:33.633Z,28.13
2022-12-19T08:50:35.723Z,36.33
2022-12-19T08:51:38.821Z,30.45
2022-12-19T08:52:41.930Z,35.00
2022-12-19T08:53:46.718Z,29.30
2022-12-19T08:54:49.805Z,31.45
2022-12-19T08:55:56.002Z,31.90
2022-12-19T08:56:59.725Z,32.92
2022-12-19T08:58:01.895Z,35.63
2022-12-19T08:59:05.367Z,33.08
2022-12-19T09:00:09.876Z,39.42
2022-12-19T09:01:16.042Z,31.40
2022-12-19T09:02:20.758Z,30.23
2022-12-19T09:03:24.128Z,34.95
2022-12-19T09:05:58.839Z,36.40
2022-12-19T09:06:06.657Z,30.40
2022-12-19T09:07:13.859Z,33.17
2022-12-19T09:08:18.879Z,34.10
2022-12-19T09:09:21.984Z,33.78
2022-12-19T09:10:25.244Z,36.55
2022-12-19T09:11:28.358Z,34.08
2022-12-19T09:12:31.457Z,34.80
2022-12-19T09:13:35.123Z,35.20
2022-12-19T09:14:38.229Z,32.38
2022-12-19T09:15:41.578Z,33.40
2022-12-19T09:16:45.258Z,37.40
2022-12-19T09:17:53.951Z,34.42
2022-12-19T09:19:01.572Z,40.58
2022-12-19T09:20:07.114Z,35.92
2022-12-19T09:21:12.118Z,33.40
2022-12-19T09:22:15.204Z,40.58
2022-12-19T09:23:18.327Z,35.63
2022-12-19T09:24:20.590Z,34.13
2022-12-19T09:25:23.827Z,35.08
2022-12-19T09:26:28.109Z,34.08
2022-12-19T09:28:01.158Z,36.33
2022-12-19T09:28:59.346Z,36.30
2022-12-19T09:30:04.056Z,36.95
2022-12-19T09:31:07.873Z,36.35
2022-12-19T09:32:11.017Z,32.58
2022-12-19T09:33:14.473Z,33.13
2022-12-19T09:34:17.552Z,35.50
2022-12-19T09:35:21.846Z,31.15
2022-12-19T09:36:27.929Z,36.15
2022-12-19T09:37:31.043Z,35.95
2022-12-19T09:38:38.063Z,30.10
2022-12-19T09:39:41.444Z,35.10
2022-12-19T09:40:55.481Z,35.53
2022-12-19T09:42:16.033Z,34.25
2022-12-19T09:43:38.068Z,31.35
2022-12-19T09:45:00.769Z,33.42
2022-12-19T09:46:16.602Z,37.05
2022-12-19T09:47:24.392Z,36.35
2022-12-19T09:48:28.930Z,30.85
2022-12-19T09:49:41.785Z,33.22
2022-12-19T09:50:52.136Z,35.45
2022-12-19T09:52:00.794Z,31.80
2022-12-19T09:53:09.061Z,31.95
2022-12-19T09:54:17.406Z,34.60
2022-12-19T09:55:23.620Z,35.97
2022-12-19T09:56:30.387Z,35.80
2022-12-19T09:57:45.829Z,36.63
2022-12-19T09:58:55.520Z,33.45
2022-12-19T10:00:05.040Z,35.85
2022-12-19T10:01:18.921Z,36.28
2022-12-19T10:02:31.666Z,37.05
2022-12-19T10:03:41.053Z,34.40
2022-12-19T10:04:54.545Z,28.60
2022-12-19T10:07:14.470Z,32.53
2022-12-19T10:08:07.166Z,35.38
2022-12-19T10:10:54.710Z,34.70
2022-12-19T10:12:39.647Z,30.02
2022-12-19T10:13:51.514Z,32.63
2022-12-19T10:15:04.351Z,28.75
2022-12-19T10:16:17.818Z,26.73
2022-12-19T10:17:30.082Z,33.13
2022-12-19T10:18:56.401Z,31.77
2022-12-19T10:20:16.190Z,29.92
2022-12-19T10:21:59.109Z,32.75
2022-12-19T10:23:09.491Z,32.10
2022-12-19T10:24:35.994Z,28.90
2022-12-19T10:25:53.250Z,30.23
2022-12-19T10:27:01.185Z,30.10
2022-12-19T10:28:20.832Z,32.80
2022-12-19T10:29:47.660Z,30.33
2022-12-19T10:31:03.233Z,30.20
2022-12-19T10:32:23.387Z,30.92
2022-12-19T10:33:33.544Z,33.65
2022-12-19T10:34:42.267Z,31.70
2022-12-19T10:35:46.302Z,29.08
2022-12-19T10:38:26.557Z,34.25
2022-12-19T10:39:35.913Z,32.85
2022-12-19T10:40:45.052Z,28.17
2022-12-19T10:41:55.950Z,33.72
2022-12-19T10:44:14.464Z,30.45
2022-12-19T10:45:20.054Z,33.47
2022-12-19T10:46:35.605Z,32.65
2022-12-19T10:47:37.885Z,37.72
2022-12-19T10:48:41.066Z,34.15
2022-12-19T10:49:45.590Z,31.77
2022-12-19T10:50:49.884Z,30.38
2022-12-19T10:52:00.060Z,36.28
2022-12-19T10:53:11.156Z,30.55
2022-12-19T10:54:14.418Z,30.02
2022-12-19T10:55:44.070Z,33.70
2022-12-19T10:56:47.690Z,32.85
2022-12-19T10:57:49.962Z,28.45
2022-12-19T10:58:57.346Z,36.15
2022-12-19T11:00:01.641Z,32.25
2022-12-19T11:01:14.007Z,36.30
2022-12-19T11:02:36.022Z,28.73
2022-12-19T11:03:41.753Z,30.67
2022-12-19T11:04:49.170Z,33.33
2022-12-19T11:05:57.702Z,31.13
2022-12-19T11:07:19.462Z,33.28
2022-12-19T11:08:26.079Z,27.73
2022-12-19T11:09:31.601Z,33.05
2022-12-19T11:11:51.982Z,35.88
2022-12-19T11:16:44.060Z,31.20
2022-12-19T11:18:56.494Z,34.60
2022-12-19T11:19:39.694Z,29.70
2022-12-19T11:21:10.050Z,31.95
2022-12-19T11:23:39.116Z,33.03
2022-12-19T11:29:16.460Z,34.55
2022-12-19T11:29:36.670Z,30.75
2022-12-19T11:29:40.408Z,34.97
2022-12-19T11:29:42.127Z,31.40
2022-12-19T11:29:46.775Z,31.80
2022-12-19T11:30:41.739Z,31.55
2022-12-19T11:30:48.369Z,31.00
2022-12-19T11:32:45.583Z,29.77
2022-12-19T11:33:55.586Z,30.40
2022-12-19T11:35:03.103Z,28.42
2022-12-19T11:36:08.916Z,26.90
2022-12-19T11:37:21.371Z,29.52
2022-12-19T11:38:36.417Z,29.83
2022-12-19T11:39:48.624Z,27.65
2022-12-19T11:40:56.533Z,24.75
2022-12-19T11:42:07.303Z,28.98
2022-12-19T11:44:45.262Z,21.50
2022-12-19T11:45:56.939Z,24.75
2022-12-19T11:47:12.565Z,24.50
2022-12-19T11:48:21.537Z,25.20
2022-12-19T11:49:30.553Z,23.23
2022-12-19T11:50:38.945Z,23.05
2022-12-19T11:51:50.386Z,23.23
2022-12-19T11:53:09.392Z,24.50
2022-12-19T11:54:25.232Z,24.80
2022-12-19T11:55:37.314Z,21.38
2022-12-19T11:56:40.479Z,30.90
2022-12-19T11:57:43.433Z,22.92
2022-12-19T11:58:51.414Z,23.15
2022-12-19T11:59:59.907Z,25.83
2022-12-19T12:01:21.781Z,25.50
2022-12-19T12:02:44.211Z,21.33
2022-12-19T12:04:13.865Z,23.70
2022-12-19T12:05:42.054Z,25.27
2022-12-19T12:06:52.065Z,23.92
2022-12-19T12:09:32.894Z,23.73
2022-12-19T12:14:17.479Z,20.02
2022-12-19T12:16:32.437Z,21.63
2022-12-19T12:20:25.257Z,22.40
2022-12-19T12:26:38.690Z,23.38
2022-12-19T12:30:26.028Z,20.40
2022-12-19T12:30:59.034Z,21.40
2022-12-19T12:31:23.789Z,21.00
2022-12-19T12:31:26.086Z,21.85
2022-12-19T12:31:31.783Z,20.45
2022-12-19T12:31:43.270Z,21.35
2022-12-19T12:31:49.681Z,20.90
2022-12-19T12:31:53.071Z,20.40
2022-12-19T12:32:02.521Z,20.83
2022-12-19T12:32:05.064Z,22.20
2022-12-19T12:35:28.855Z,20.23
2022-12-19T12:35:52.360Z,19.75
2022-12-19T12:38:43.082Z,21.58
2022-12-19T12:39:58.728Z,20.98
2022-12-19T12:41:16.807Z,22.30
2022-12-19T12:42:33.271Z,20.92
2022-12-19T12:43:50.564Z,19.88
2022-12-19T12:45:00.076Z,19.88
2022-12-19T12:46:04.492Z,18.90
2022-12-19T12:47:16.643Z,18.77
2022-12-19T12:48:25.334Z,18.83
2022-12-19T12:49:37.209Z,20.70
2022-12-19T12:50:42.862Z,25.55
2022-12-19T12:51:47.281Z,19.45
2022-12-19T12:52:54.813Z,22.20
2022-12-19T12:54:05.138Z,23.33
2022-12-19T12:55:27.270Z,23.45
2022-12-19T12:56:29.857Z,20.83
2022-12-19T12:57:40.931Z,24.90
2022-12-19T12:59:05.547Z,20.30
2022-12-19T13:00:24.188Z,22.38
2022-12-19T13:01:35.668Z,19.45
2022-12-19T13:02:39.196Z,21.85
2022-12-19T13:03:53.814Z,20.67
2022-12-19T13:04:59.781Z,21.60
2022-12-19T13:06:07.520Z,20.15
2022-12-19T13:07:30.262Z,20.75
2022-12-19T13:08:39.073Z,20.58
2022-12-19T13:09:43.378Z,20.83
2022-12-19T13:10:55.801Z,23.02
2022-12-19T13:12:20.823Z,24.35
2022-12-19T13:13:51.593Z,21.67
2022-12-19T13:14:54.802Z,23.33
2022-12-19T13:15:57.063Z,23.10
2022-12-19T13:17:00.359Z,24.10
2022-12-19T13:18:38.762Z,23.15
2022-12-19T13:19:54.567Z,24.20
2022-12-19T13:20:58.065Z,19.88
2022-12-19T13:22:18.976Z,23.58
2022-12-19T13:24:25.734Z,21.10
2022-12-19T13:25:53.659Z,20.75
2022-12-19T13:26:56.834Z,20.88
2022-12-19T13:28:14.993Z,19.58
2022-12-19T13:29:27.681Z,24.50
2022-12-19T13:30:32.734Z,22.33
2022-12-19T13:32:10.850Z,23.98
2022-12-19T13:33:15.619Z,22.73
2022-12-19T13:34:20.153Z,22.50
2022-12-19T13:36:11.622Z,22.95
2022-12-19T13:39:51.157Z,21.10
2022-12-19T13:39:59.745Z,24.30
2022-12-19T13:40:32.830Z,21.38
2022-12-19T13:42:01.308Z,22.73
2022-12-19T13:43:32.827Z,21.27
2022-12-19T13:44:40.993Z,21.17
2022-12-19T13:45:50.969Z,26.42
2022-12-19T13:46:57.133Z,21.83
2022-12-19T13:48:03.744Z,22.20
2022-12-19T13:49:13.049Z,26.05
2022-12-19T13:50:26.697Z,23.33
2022-12-19T13:51:41.887Z,23.50
2022-12-19T13:52:49.708Z,24.02
2022-12-19T13:53:59.597Z,21.60
2022-12-19T13:55:03.485Z,25.25
2022-12-19T13:56:14.112Z,25.25
2022-12-19T13:57:27.206Z,24.85
2022-12-19T13:58:32.775Z,25.77
2022-12-19T13:59:40.299Z,26.77
2022-12-19T14:00:47.480Z,24.02
2022-12-19T14:01:56.483Z,24.88
2022-12-19T14:03:01.625Z,25.35
2022-12-19T14:04:08.533Z,23.58
2022-12-19T14:06:14.476Z,23.38
2022-12-19T14:06:52.590Z,22.63
2022-12-19T14:07:55.600Z,23.17
2022-12-19T14:11:26.902Z,25.98
2022-12-19T14:11:34.043Z,27.73
2022-12-19T14:12:26.881Z,24.20
2022-12-19T14:14:01.379Z,25.83
2022-12-19T14:15:21.129Z,26.30
2022-12-19T14:16:43.250Z,27.17
2022-12-19T14:17:49.485Z,26.67
2022-12-19T14:18:56.142Z,26.80
2022-12-19T14:20:15.851Z,26.60
2022-12-19T14:22:08.640Z,26.42
2022-12-19T14:22:47.761Z,26.52
2022-12-19T14:23:50.957Z,28.08
2022-12-19T14:26:05.718Z,28.67
2022-12-19T14:28:19.304Z,28.33
2022-12-19T14:28:24.035Z,27.02
2022-12-19T14:29:45.600Z,23.77
2022-12-19T14:30:51.614Z,27.05
2022-12-19T14:32:40.135Z,25.77
2022-12-19T14:33:47.186Z,27.75
2022-12-19T14:36:06.965Z,29.67
2022-12-19T14:36:18.576Z,27.00
2022-12-19T14:39:20.871Z,27.35
2022-12-19T14:39:22.476Z,26.17
2022-12-19T14:40:24.339Z,27.70
2022-12-19T14:42:02.484Z,30.63
2022-12-19T14:43:57.384Z,24.67
2022-12-19T14:52:35.959Z,27.45
2022-12-19T14:53:52.623Z,26.85
2022-12-19T14:53:52.729Z,29.48
2022-12-19T14:54:08.206Z,30.40
2022-12-19T14:54:21.865Z,26.42
2022-12-19T14:54:55.365Z,27.30
2022-12-19T14:56:16.204Z,29.77
2022-12-19T14:57:06.108Z,29.08
2022-12-19T14:58:52.657Z,31.85
2022-12-19T14:59:35.883Z,30.15
2022-12-19T15:01:09.168Z,31.35
2022-12-19T15:02:27.971Z,30.73
2022-12-19T15:04:49.312Z,32.67
2022-12-19T15:05:16.838Z,31.20
2022-12-19T15:07:07.122Z,32.67
2022-12-19T15:07:50.976Z,33.53